Jianyang, China
Current Conditions -  °F | °C
As of 8:00 PM on Monday 29 Dec 2014 (Local Time) from ZUUU Reporting Station
Haze Haze  
Wind Chill: 38°   Ceiling: Unl
Heat Index: 41°   Visibility: 1.5mi
Dew Point: 36°   Wind: 4mph
Humidity: 81%   Direction: 10°N
Pressure: 30.09"   Gusts: NA
Location:  30.57°N, 104.55°E
Report Text: ZUUU 291200Z 01002MPS 2500 BR FEW009 05/02 Q1019 BECMG TL13003000
Loading
Personal Weather Stations






























Interactive Weather Map New forecast layout! Learn more

10-Day Weather Forecast

Advertisements
Track Severe Weather on mobile